Time;durP1;ratioP1;P1;durP2;ratioP2;P2;SDS_P1;SDS_P2;PMS_P1;PMS_P2;Temp;Humidity;BMP_temperature;BMP_pressure;BME280_temperature;BME280_humidity;BME280_pressure;Samples;Min_cycle;Max_cycle;Signal;HPM_P1;HPM_P2
2023/01/11 00:01:50;;;;;;;;;0.00;0.00;;;;;21.02;45.92;100825.50;5076627;27;45551;-72
2023/01/11 00:04:16;;;;;;;;;2.00;0.00;;;;;21.03;46.16;100820.03;5076550;27;45463;-73
2023/01/11 00:06:41;;;;;;;;;0.33;0.00;;;;;21.06;45.79;100818.84;5076466;28;45385;-72
2023/01/11 00:09:06;;;;;;;;;0.33;0.00;;;;;21.00;45.94;100809.75;5076656;27;45293;-72
2023/01/11 00:11:32;;;;;;;;;0.33;0.33;;;;;21.06;46.06;100809.09;5076361;28;45372;-72
2023/01/11 00:13:57;;;;;;;;;0.00;0.00;;;;;20.98;45.59;100803.81;5076545;28;46080;-72
2023/01/11 00:16:23;;;;;;;;;0.00;0.00;;;;;21.06;45.76;100818.84;5076092;28;45233;-72
2023/01/11 00:18:48;;;;;;;;;0.00;0.00;;;;;21.05;45.59;100820.69;5076585;28;45240;-72
2023/01/11 00:21:13;;;;;;;;;0.00;0.00;;;;;20.81;45.47;100776.66;5076451;27;45395;-72
2023/01/11 00:23:39;;;;;;;;;0.00;0.00;;;;;21.05;45.94;100818.03;5076115;28;45845;-73
2023/01/11 00:26:08;;;;;;;;;0.00;0.00;;;;;21.05;45.75;100817.22;5074965;28;45749;-72
2023/01/11 00:28:33;;;;;;;;;0.00;0.00;;;;;21.05;45.75;100823.31;5076432;28;45418;-72
2023/01/11 00:30:59;;;;;;;;;0.00;0.00;;;;;21.05;45.96;100819.88;5076155;28;45305;-72
2023/01/11 00:33:24;;;;;;;;;0.00;0.00;;;;;21.04;45.73;100820.84;5076171;28;45326;-72
2023/01/11 00:35:51;;;;;;;;;1.00;0.00;;;;;21.04;45.95;100816.41;5076326;28;45558;-72
2023/01/11 00:38:42;;;;;;;;;0.00;0.00;;;;;21.06;45.71;100824.16;5076222;28;45407;-72
2023/01/11 00:47:55;;;;;;;;;0.00;0.00;;;;;21.05;45.99;100810.09;5075471;27;45331;-72
2023/01/11 00:49:14;;;;;;;;;0.00;0.00;;;;;21.09;45.70;100804.47;5076046;28;45606;-72
2023/01/11 00:51:40;;;;;;;;;0.00;0.00;;;;;21.02;45.71;100799.06;5075881;28;45371;-72
2023/01/11 00:54:05;;;;;;;;;0.00;0.00;;;;;21.09;45.93;100792.06;5075811;28;46132;-72
2023/01/11 00:56:30;;;;;;;;;0.00;0.00;;;;;21.11;45.72;100810.41;5075409;28;45358;-72
2023/01/11 00:58:56;;;;;;;;;0.00;0.00;;;;;21.00;45.97;100798.38;5076104;28;45396;-72
2023/01/11 01:01:21;;;;;;;;;0.00;0.00;;;;;21.12;45.70;100812.06;5076302;28;45388;-72
2023/01/11 01:03:46;;;;;;;;;0.00;0.00;;;;;21.12;45.88;100815.53;5079415;28;49338;-72
2023/01/11 01:06:12;;;;;;;;;0.00;0.00;;;;;21.13;45.95;100813.72;5079209;27;45361;-72
2023/01/11 01:08:37;;;;;;;;;0.00;0.00;;;;;21.13;46.18;100809.22;5079258;27;45343;-72
2023/01/11 01:11:02;;;;;;;;;0.00;0.00;;;;;21.13;46.00;100813.72;5079360;27;45428;-72
2023/01/11 01:16:11;;;;;;;;;0.00;0.00;;;;;21.12;45.89;100806.75;5079304;28;45388;-73
2023/01/11 01:18:36;;;;;;;;;1.00;1.00;;;;;21.12;45.90;100793.53;5078881;28;45481;-72
2023/01/11 01:21:02;;;;;;;;;1.00;0.00;;;;;21.08;45.90;100792.25;5078973;28;45418;-73
2023/01/11 01:23:27;;;;;;;;;0.00;0.00;;;;;21.02;45.78;100786.66;5078791;28;46729;-73
2023/01/11 01:25:53;;;;;;;;;0.00;0.00;;;;;21.10;46.15;100793.72;5077802;28;45350;-72
2023/01/11 01:28:20;;;;;;;;;0.00;0.00;;;;;21.10;45.68;100790.25;5079074;27;45412;-72
2023/01/11 01:30:50;;;;;;;;;0.00;0.00;;;;;21.09;46.07;100791.22;5079230;28;45226;-72
2023/01/11 01:33:15;;;;;;;;;0.00;0.00;;;;;21.07;45.86;100778.19;5079060;28;46369;-72
2023/01/11 01:35:41;;;;;;;;;0.00;0.00;;;;;21.09;46.07;100799.16;5078945;28;45312;-72
2023/01/11 01:38:06;;;;;;;;;0.00;0.00;;;;;21.06;45.97;100803.81;5077875;28;45304;-72
2023/01/11 01:40:31;;;;;;;;;0.00;0.00;;;;;21.03;45.76;100804.16;5079255;28;45321;-72
2023/01/11 01:42:57;;;;;;;;;0.00;0.00;;;;;21.08;45.89;100800.19;5078819;27;46229;-73
2023/01/11 01:45:25;;;;;;;;;0.00;0.00;;;;;21.07;46.36;100804.66;5078572;27;45230;-73
2023/01/11 01:47:57;;;;;;;;;0.00;0.00;;;;;21.08;46.16;100805.47;5078964;28;45376;-73
2023/01/11 01:50:31;;;;;;;;;0.67;0.00;;;;;20.98;45.89;100795.91;5078825;27;45473;-72
2023/01/11 01:53:23;;;;;;;;;0.00;0.00;;;;;21.05;45.88;100806.66;5078410;28;46400;-73
2023/01/11 01:55:57;;;;;;;;;0.00;0.00;;;;;21.06;46.10;100814.41;5060693;28;45513;-73
2023/01/11 01:58:29;;;;;;;;;0.00;0.00;;;;;21.06;45.79;100817.03;5078592;28;45396;-73
2023/01/11 02:00:54;;;;;;;;;0.00;0.00;;;;;21.06;46.05;100827.63;5078705;28;45266;-73
2023/01/11 02:03:23;;;;;;;;;0.00;0.00;;;;;21.06;45.85;100824.16;5078154;27;45302;-72
2023/01/11 02:05:50;;;;;;;;;0.00;0.00;;;;;21.05;46.24;100820.69;5077986;27;45408;-72
2023/01/11 02:08:23;;;;;;;;;0.00;0.00;;;;;21.05;46.10;100818.03;5078724;28;45451;-72
2023/01/11 02:10:50;;;;;;;;;0.00;0.00;;;;;21.06;46.05;100822.34;5078532;28;45357;-72
2023/01/11 02:13:16;;;;;;;;;0.00;0.00;;;;;21.05;45.93;100818.03;5078158;28;46545;-72
2023/01/11 02:15:41;;;;;;;;;0.00;0.00;;;;;21.06;46.22;100824.16;5078454;28;45435;-72
2023/01/11 02:18:11;;;;;;;;;0.00;0.00;;;;;21.05;46.13;100820.69;5078295;28;45610;-72
2023/01/11 02:21:08;;;;;;;;;0.00;0.00;;;;;21.05;46.09;100841.84;5078227;28;45392;-72
2023/01/11 02:23:57;;;;;;;;;0.00;0.00;;;;;21.05;46.07;100886.81;5078094;28;47377;-72
2023/01/11 02:26:44;;;;;;;;;0.33;0.00;;;;;21.06;46.23;100890.28;5078352;27;45422;-72
2023/01/11 02:29:17;;;;;;;;;0.00;0.00;;;;;21.07;46.18;100891.94;5078226;28;45303;-73
2023/01/11 02:31:51;;;;;;;;;1.00;0.00;;;;;21.08;46.16;100908.66;5078292;28;45408;-72
2023/01/11 02:34:45;;;;;;;;;0.33;0.33;;;;;21.09;45.77;100920.84;5077887;28;46183;-73
2023/01/11 02:37:22;;;;;;;;;0.00;0.00;;;;;21.09;45.93;100913.75;4995772;28;45533;-72
2023/01/11 02:40:10;;;;;;;;;0.00;0.00;;;;;21.09;45.94;100915.56;4995656;28;45326;-72
2023/01/11 02:45:36;;;;;;;;;0.00;0.00;;;;;21.11;45.68;100924.16;4995467;28;45346;-72
2023/01/11 02:48:09;;;;;;;;;0.00;0.00;;;;;21.11;45.90;100932.09;4995549;28;45358;-72
2023/01/11 02:50:47;;;;;;;;;1.00;0.00;;;;;21.13;46.08;100948.63;4995280;28;45440;-73
2023/01/11 02:53:20;;;;;;;;;0.00;0.00;;;;;21.14;45.73;100939.69;4995567;28;45400;-73
2023/01/11 02:55:53;;;;;;;;;0.00;0.00;;;;;21.13;45.75;100944.16;4994999;28;47160;-72
2023/01/11 02:58:21;;;;;;;;;0.00;0.00;;;;;21.12;46.29;100950.44;4995354;28;45470;-72
2023/01/11 03:00:48;;;;;;;;;0.33;0.33;;;;;21.05;46.33;100946.84;4995271;28;45415;-72
2023/01/11 03:03:16;;;;;;;;;0.67;0.00;;;;;21.12;45.70;100955.75;4995324;28;45412;-73
2023/01/11 03:05:50;;;;;;;;;0.00;0.00;;;;;21.12;45.91;100953.09;4994821;28;45478;-72
2023/01/11 03:08:40;;;;;;;;;0.00;0.00;;;;;21.12;46.17;100963.69;4995417;28;45395;-73
2023/01/11 03:11:10;;;;;;;;;0.00;0.00;;;;;21.12;46.33;100960.22;4995427;28;45401;-73
2023/01/11 03:14:07;;;;;;;;;0.00;0.00;;;;;21.11;46.01;100966.47;5012951;28;45345;-72
2023/01/11 03:17:05;;;;;;;;;0.00;0.00;;;;;21.09;46.03;100961.38;5057011;28;45423;-72
2023/01/11 03:19:42;;;;;;;;;0.00;0.00;;;;;21.10;46.21;100959.56;4974946;28;45474;-72
2023/01/11 03:22:12;;;;;;;;;3.00;0.33;;;;;21.09;45.89;100971.13;4975537;28;45305;-72
2023/01/11 03:24:54;;;;;;;;;0.00;0.00;;;;;21.05;45.87;100982.03;4974655;28;45419;-72
2023/01/11 03:27:32;;;;;;;;;0.00;0.00;;;;;21.09;46.26;100987.00;4975185;28;45425;-73
2023/01/11 03:30:14;;;;;;;;;0.67;0.00;;;;;21.01;46.35;100977.22;4975032;28;45512;-72
2023/01/11 03:32:59;;;;;;;;;0.67;0.00;;;;;21.07;45.86;101000.41;4975252;28;45486;-72
2023/01/11 03:35:57;;;;;;;;;0.00;0.00;;;;;21.02;45.90;100989.50;4975292;28;45554;-72
2023/01/11 03:38:45;;;;;;;;;0.00;0.00;;;;;21.09;46.23;101010.81;4974898;28;45451;-72
2023/01/11 03:41:17;;;;;;;;;1.67;0.00;;;;;21.08;46.14;101017.91;4974870;28;45423;-72
2023/01/11 03:43:46;;;;;;;;;0.00;0.00;;;;;21.08;45.86;101027.69;4975020;28;45545;-72
2023/01/11 03:46:19;;;;;;;;;1.00;0.00;;;;;21.07;46.18;101032.16;4995270;28;45365;-72
2023/01/11 03:48:52;;;;;;;;;0.00;0.00;;;;;21.06;45.88;101033.13;5013880;28;46150;-72
2023/01/11 03:51:23;;;;;;;;;0.67;0.00;;;;;21.06;45.93;101019.91;5014274;28;45442;-72
2023/01/11 03:53:51;;;;;;;;;0.00;0.00;;;;;21.08;45.89;101027.69;5014346;28;45378;-72
2023/01/11 03:56:22;;;;;;;;;0.00;0.00;;;;;20.97;45.96;101003.22;5054407;28;45414;-72
2023/01/11 03:58:47;;;;;;;;;0.00;0.00;;;;;21.00;45.97;101016.09;5076448;27;47015;-72
2023/01/11 04:01:13;;;;;;;;;0.00;0.00;;;;;21.01;45.98;101017.78;5058064;28;45455;-72
2023/01/11 04:03:38;;;;;;;;;0.00;0.00;;;;;21.06;46.46;101022.56;5076530;28;45206;-72
2023/01/11 04:06:04;;;;;;;;;0.00;0.00;;;;;21.06;46.14;101014.63;5076866;28;45419;-72
2023/01/11 04:08:32;;;;;;;;;0.00;0.00;;;;;21.05;46.11;101024.38;5076342;28;46009;-72
2023/01/11 04:10:58;;;;;;;;;0.00;0.00;;;;;21.06;46.06;101035.78;5076405;28;45401;-72
2023/01/11 04:13:23;;;;;;;;;0.00;0.00;;;;;21.07;46.37;101037.44;5076457;27;45387;-72
2023/01/11 04:15:49;;;;;;;;;0.00;0.00;;;;;21.09;46.09;101042.56;5076556;28;45384;-72
2023/01/11 04:18:14;;;;;;;;;0.00;0.00;;;;;21.09;46.15;101037.25;5075738;28;48000;-72
2023/01/11 04:20:40;;;;;;;;;1.00;1.00;;;;;21.04;46.05;101029.84;5076292;28;45340;-72
2023/01/11 04:23:07;;;;;;;;;0.00;0.00;;;;;21.03;46.01;101042.22;5076507;28;45422;-72
2023/01/11 04:25:32;;;;;;;;;0.67;0.00;;;;;21.09;46.30;101059.25;5076432;27;45539;-72
2023/01/11 04:27:58;;;;;;;;;0.00;0.00;;;;;21.11;45.98;101059.06;5058113;28;48011;-72
2023/01/11 04:30:24;;;;;;;;;0.00;0.00;;;;;21.10;46.29;101070.69;5076176;27;45289;-72
2023/01/11 04:32:50;;;;;;;;;0.00;0.00;;;;;21.12;45.90;101072.16;5076059;28;45448;-72
2023/01/11 04:35:16;;;;;;;;;0.00;0.00;;;;;21.11;46.28;101081.06;5075862;28;45447;-72
2023/01/11 04:37:41;;;;;;;;;0.67;0.67;;;;;21.12;45.96;101085.38;5056960;28;47340;-72
2023/01/11 04:40:08;;;;;;;;;0.00;0.00;;;;;21.12;45.84;101080.09;5075969;28;45337;-73
2023/01/11 04:42:33;;;;;;;;;0.00;0.00;;;;;21.05;46.22;101073.84;5074272;28;45388;-73
2023/01/11 04:44:58;;;;;;;;;0.00;0.00;;;;;21.12;46.22;101087.19;5075749;27;45311;-71
2023/01/11 04:47:24;;;;;;;;;0.00;0.00;;;;;21.11;46.33;101081.06;5075693;28;46126;-72
2023/01/11 04:49:50;;;;;;;;;2.00;0.00;;;;;21.00;45.92;101055.75;5076044;27;45494;-72
2023/01/11 04:52:18;;;;;;;;;0.00;0.00;;;;;21.04;46.38;101064.22;5076191;28;45475;-71
2023/01/11 04:54:43;;;;;;;;;0.33;0.00;;;;;21.11;45.99;101080.25;5075873;28;45379;-71
2023/01/11 04:57:12;;;;;;;;;0.00;0.00;;;;;21.11;46.16;101082.91;5072848;28;46497;-71
2023/01/11 04:59:37;;;;;;;;;0.00;0.00;;;;;21.10;45.88;101079.44;5075900;28;45381;-73
2023/01/11 05:02:02;;;;;;;;;0.00;0.00;;;;;21.10;46.17;101078.63;5075387;28;45258;-72
2023/01/11 05:04:28;;;;;;;;;0.00;0.00;;;;;21.06;46.51;101071.00;5075778;28;45361;-72
2023/01/11 05:06:53;;;;;;;;;0.00;0.00;;;;;20.95;46.11;101052.78;5075731;28;47439;-72
2023/01/11 05:09:18;;;;;;;;;0.00;0.00;;;;;21.09;46.24;101079.59;5075728;28;45348;-72
2023/01/11 05:11:44;;;;;;;;;0.00;0.00;;;;;21.09;46.20;101083.06;5074787;28;45436;-71
2023/01/11 05:14:10;;;;;;;;;0.00;0.00;;;;;20.98;45.94;101067.50;5075822;28;45326;-72
2023/01/11 05:16:35;;;;;;;;;0.00;0.00;;;;;21.09;45.91;101087.53;5075377;28;46314;-72
2023/01/11 05:19:01;;;;;;;;;0.00;0.00;;;;;21.07;46.02;101098.28;5075533;28;45435;-72
2023/01/11 05:21:30;;;;;;;;;0.00;0.00;;;;;21.06;45.76;101108.03;5075846;28;45427;-72
2023/01/11 05:23:57;;;;;;;;;0.00;0.00;;;;;21.08;46.16;101113.16;5075441;28;45490;-72
2023/01/11 05:26:26;;;;;;;;;0.67;0.67;;;;;21.09;46.21;101116.63;5075475;28;46227;-72
2023/01/11 05:28:53;;;;;;;;;0.00;0.00;;;;;21.00;45.82;101102.56;5074560;28;45351;-72
2023/01/11 05:31:19;;;;;;;;;0.33;0.33;;;;;21.06;46.06;101121.28;5075545;28;45426;-72
2023/01/11 05:33:44;;;;;;;;;2.33;0.33;;;;;21.06;46.18;101113.34;5075446;28;45230;-72
2023/01/11 05:36:16;;;;;;;;;0.00;0.00;;;;;21.06;45.92;101115.97;5075238;28;46269;-73
2023/01/11 05:38:44;;;;;;;;;0.00;0.00;;;;;21.06;45.89;101129.22;5075267;28;45347;-72
2023/01/11 05:41:12;;;;;;;;;0.00;0.00;;;;;21.05;46.55;101134.69;5075177;28;45230;-71
2023/01/11 05:46:22;;;;;;;;;0.67;0.00;;;;;21.06;46.43;101134.50;5075069;28;45622;-72
2023/01/11 05:48:48;;;;;;;;;0.00;0.00;;;;;21.06;46.33;101145.09;5078164;28;45493;-71
2023/01/11 05:51:14;;;;;;;;;0.00;0.00;;;;;21.08;46.51;101142.25;5077540;28;45562;-73
2023/01/11 05:53:39;;;;;;;;;0.00;0.00;;;;;21.10;46.84;101150.03;5075360;28;45502;-73
2023/01/11 05:56:05;;;;;;;;;0.00;0.00;;;;;21.10;46.45;101147.41;5077600;28;45324;-72
2023/01/11 05:58:30;;;;;;;;;0.00;0.00;;;;;21.09;46.53;101153.66;5077043;28;45523;-73
2023/01/11 06:00:56;;;;;;;;;0.00;0.00;;;;;21.09;46.97;101156.31;5056978;28;45445;-73
2023/01/11 06:03:23;;;;;;;;;0.67;0.00;;;;;21.12;46.72;101150.69;5065658;28;45316;-73
2023/01/11 06:05:49;;;;;;;;;0.00;0.00;;;;;21.10;46.42;101150.88;5057906;28;45332;-73
2023/01/11 06:08:15;;;;;;;;;0.00;0.00;;;;;21.14;46.72;101154.00;5057802;28;45452;-73
2023/01/11 06:10:41;;;;;;;;;0.00;0.00;;;;;21.16;46.59;101158.13;5058102;28;45214;-71
2023/01/11 06:13:25;;;;;;;;;0.00;0.00;;;;;21.17;46.72;101161.63;5057728;28;45388;-73
2023/01/11 06:16:01;;;;;;;;;1.67;0.00;;;;;21.16;46.73;101166.06;5057715;28;46100;-73
2023/01/11 06:18:29;;;;;;;;;0.00;0.00;;;;;21.12;46.39;101162.13;5057713;28;45289;-74
2023/01/11 06:20:54;;;;;;;;;0.00;0.00;;;;;21.18;46.59;101176.50;5058135;28;45372;-73
2023/01/11 06:23:21;;;;;;;;;0.67;0.67;;;;;21.18;46.20;101174.66;5058004;28;45323;-73
2023/01/11 06:25:46;;;;;;;;;0.00;0.00;;;;;21.18;46.71;101179.97;5057739;28;47142;-73
2023/01/11 06:28:12;;;;;;;;;0.33;0.00;;;;;21.18;46.34;101193.19;5057567;28;45448;-73
2023/01/11 06:30:38;;;;;;;;;1.67;0.00;;;;;21.18;46.51;101202.97;5057885;28;45427;-73
2023/01/11 06:33:07;;;;;;;;;1.00;0.00;;;;;21.17;46.87;101204.78;5057767;28;45388;-73
2023/01/11 06:35:39;;;;;;;;;2.00;0.00;;;;;21.18;46.87;101216.19;5057778;28;45969;-74
2023/01/11 06:38:08;;;;;;;;;1.00;0.00;;;;;21.17;46.61;101218.00;5057491;28;45281;-73
2023/01/11 06:40:34;;;;;;;;;0.00;0.00;;;;;21.17;46.37;101227.75;5057865;28;45537;-73
2023/01/11 06:42:59;;;;;;;;;1.00;1.00;;;;;21.16;46.74;101226.94;5057240;28;45545;-73
2023/01/11 06:45:25;;;;;;;;;0.33;0.00;;;;;21.15;46.32;101233.22;5061212;27;46284;-73
2023/01/11 06:47:50;;;;;;;;;0.00;0.00;;;;;21.06;46.43;101213.03;5077960;27;45411;-73
2023/01/11 06:50:16;;;;;;;;;0.00;0.00;;;;;21.14;46.47;101230.72;5078092;28;45360;-73
2023/01/11 06:52:42;;;;;;;;;0.00;0.00;;;;;21.15;46.62;101235.03;5059605;28;45644;-73
2023/01/11 06:55:07;;;;;;;;;0.00;0.00;;;;;21.14;46.71;101233.38;5077612;28;46931;-73
2023/01/11 06:57:33;;;;;;;;;0.00;0.00;;;;;21.14;46.33;101239.50;5077352;27;46023;-73
2023/01/11 06:59:58;;;;;;;;;1.33;0.00;;;;;21.10;46.38;101227.59;5075411;28;45358;-73
2023/01/11 07:02:24;;;;;;;;;1.00;1.00;;;;;21.13;46.24;101237.03;5077485;28;45424;-73
2023/01/11 07:04:49;;;;;;;;;0.00;0.00;;;;;21.14;46.57;101243.97;5077590;28;45469;-73
2023/01/11 07:07:14;;;;;;;;;0.00;0.00;;;;;21.13;46.50;101244.97;5077449;27;45312;-73
2023/01/11 07:09:41;;;;;;;;;0.00;0.00;;;;;21.09;46.67;101252.41;5076641;28;45301;-73
2023/01/11 07:12:06;;;;;;;;;0.00;0.00;;;;;21.13;46.13;101260.84;5077250;27;45384;-73
2023/01/11 07:14:31;;;;;;;;;0.00;0.00;;;;;21.13;46.69;101266.13;5059156;28;45868;-73
2023/01/11 07:16:57;;;;;;;;;0.00;0.00;;;;;21.12;46.50;101273.25;5077429;28;45358;-73
2023/01/11 07:19:22;;;;;;;;;0.00;0.00;;;;;21.11;46.88;101278.69;5077323;28;45393;-73
2023/01/11 07:21:47;;;;;;;;;0.00;0.00;;;;;21.12;46.59;101283.00;5077533;28;45339;-73
2023/01/11 07:24:13;;;;;;;;;0.00;0.00;;;;;21.12;46.13;101294.41;5077015;28;46259;-73
2023/01/11 07:26:40;;;;;;;;;0.00;0.00;;;;;21.12;46.05;101298.88;5076830;28;45341;-73
2023/01/11 07:29:09;;;;;;;;;1.00;0.00;;;;;21.13;46.44;101297.88;5077344;28;45357;-74
2023/01/11 07:31:34;;;;;;;;;0.00;0.00;;;;;21.00;46.54;101285.91;5077138;27;45396;-73
2023/01/11 07:33:59;;;;;;;;;1.00;0.00;;;;;21.13;46.06;101300.53;5076885;28;46145;-74
2023/01/11 07:36:25;;;;;;;;;0.00;0.00;;;;;21.10;46.27;101308.78;5077141;28;45280;-73
2023/01/11 07:38:50;;;;;;;;;0.00;0.00;;;;;21.11;46.00;101299.84;5077213;28;45377;-73
2023/01/11 07:43:59;;;;;;;;;0.00;0.00;;;;;21.14;45.92;101313.59;5077028;28;45328;-73
2023/01/11 07:46:24;;;;;;;;;1.33;0.00;;;;;21.13;46.00;101311.13;5076851;27;45334;-71
2023/01/11 07:48:50;;;;;;;;;0.00;0.00;;;;;21.16;45.94;101313.41;5077053;28;45397;-72
2023/01/11 07:51:19;;;;;;;;;2.67;0.00;;;;;21.09;46.40;101315.91;5075134;28;45404;-73
2023/01/11 07:53:44;;;;;;;;;0.00;0.00;;;;;21.15;46.15;101325.00;5073605;27;46279;-73
2023/01/11 07:56:10;;;;;;;;;0.00;0.00;;;;;21.13;45.92;101321.69;5072385;28;45451;-72
2023/01/11 07:58:35;;;;;;;;;0.67;0.00;;;;;21.16;46.14;101334.59;5074607;28;45644;-73
2023/01/11 08:01:00;;;;;;;;;0.00;0.00;;;;;21.18;46.32;101340.56;5069492;28;45548;-74
2023/01/11 08:03:26;;;;;;;;;1.00;0.00;;;;;21.17;46.05;101339.72;5073477;28;47483;-72
2023/01/11 08:05:51;;;;;;;;;0.00;0.00;;;;;21.18;46.49;101344.00;5074744;28;45509;-73
2023/01/11 08:08:17;;;;;;;;;0.00;0.00;;;;;21.13;46.32;101342.88;5074582;28;45307;-73
2023/01/11 08:10:42;;;;;;;;;0.00;0.00;;;;;21.19;46.37;101355.44;5074291;28;45591;-73
2023/01/11 08:15:56;;;;;;;;;2.00;0.00;;;;;21.20;46.27;101380.91;5076042;28;45370;-73
2023/01/11 08:18:22;;;;;;;;;0.00;0.00;;;;;21.21;46.24;101379.91;5075393;28;45420;-73
2023/01/11 08:20:51;;;;;;;;;0.00;0.00;;;;;21.21;46.43;101384.41;5075968;28;45675;-73
2023/01/11 08:23:17;;;;;;;;;0.00;0.00;;;;;21.20;46.15;101383.56;5074921;28;47030;-72
2023/01/11 08:25:42;;;;;;;;;1.00;0.00;;;;;21.21;46.23;101387.03;5072990;28;45482;-72
2023/01/11 08:28:09;;;;;;;;;0.00;0.00;;;;;21.21;46.13;101397.63;5075997;28;45487;-72
2023/01/11 08:30:35;;;;;;;;;1.00;0.00;;;;;21.20;46.54;101402.09;5074840;28;45363;-72
2023/01/11 08:33:01;;;;;;;;;0.00;0.00;;;;;21.21;46.08;101402.94;5075467;28;47194;-73
2023/01/11 08:35:27;;;;;;;;;1.00;0.67;;;;;21.18;46.22;101406.72;5075316;28;45377;-73
2023/01/11 08:37:52;;;;;;;;;0.00;0.00;;;;;21.11;46.02;101401.22;5074522;28;45393;-73
2023/01/11 08:40:17;;;;;;;;;0.00;0.00;;;;;21.20;46.24;101411.84;5075212;28;45590;-73
2023/01/11 08:42:43;;;;;;;;;0.00;0.00;;;;;21.20;46.32;101427.72;5075056;28;46843;-72
2023/01/11 08:45:08;;;;;;;;;0.00;0.00;;;;;21.20;46.67;101425.06;5075015;28;45427;-73
2023/01/11 08:47:34;;;;;;;;;0.00;0.00;;;;;21.20;46.40;101419.78;5075415;28;45432;-73
2023/01/11 08:49:59;;;;;;;;;0.00;0.00;;;;;21.20;46.47;101407.38;5075283;28;45653;-73
2023/01/11 08:52:24;;;;;;;;;0.33;0.33;;;;;21.19;46.33;101400.41;5068725;28;46413;-73
2023/01/11 08:54:50;;;;;;;;;1.00;0.00;;;;;21.23;46.44;101419.47;5074933;28;45404;-71
2023/01/11 08:57:15;;;;;;;;;1.67;0.00;;;;;21.25;46.08;101420.13;5073148;28;45294;-72
2023/01/11 08:59:40;;;;;;;;;0.00;0.00;;;;;21.24;46.13;101424.59;5074227;28;46399;-72
2023/01/11 09:02:06;;;;;;;;;0.00;0.00;;;;;21.23;46.54;101414.16;5074364;28;45482;-72
2023/01/11 09:04:32;;;;;;;;;2.00;0.00;;;;;21.27;46.30;101423.44;5074938;28;45370;-72
2023/01/11 09:06:58;;;;;;;;;1.00;1.00;;;;;21.25;46.45;101420.97;5107631;27;45446;-73
2023/01/11 09:09:23;;;;;;;;;0.33;0.00;;;;;21.26;46.19;101419.16;5074656;28;45444;-73
2023/01/11 09:12:01;;;;;;;;;0.00;0.00;;;;;21.28;46.08;101425.09;5074565;28;46276;-73
2023/01/11 09:14:27;;;;;;;;;1.00;0.00;;;;;21.30;46.14;101425.75;5074725;28;45287;-73
2023/01/11 09:16:53;;;;;;;;;1.00;0.00;;;;;21.30;46.23;101428.41;5075388;28;45518;-72
2023/01/11 09:19:20;;;;;;;;;0.00;0.00;;;;;21.31;46.30;101427.44;5074407;28;45448;-72
2023/01/11 09:21:45;;;;;;;;;0.00;0.00;;;;;21.31;46.00;101434.53;5074126;28;45534;-73
2023/01/11 09:24:11;;;;;;;;;1.00;1.00;;;;;21.30;46.29;101436.34;5077590;28;45417;-73
2023/01/11 09:26:37;;;;;;;;;0.00;0.00;;;;;21.31;46.63;101442.47;5078348;28;45517;-72
2023/01/11 09:29:02;;;;;;;;;0.00;0.00;;;;;21.34;46.44;101445.63;5075356;28;45303;-74
2023/01/11 09:31:28;;;;;;;;;0.00;0.00;;;;;21.27;46.37;101437.50;5074961;28;45991;-73
2023/01/11 09:33:53;;;;;;;;;0.00;0.00;;;;;21.33;45.91;101446.63;5074054;28;45415;-73
2023/01/11 09:36:20;;;;;;;;;0.00;0.00;;;;;21.32;46.36;101447.59;5074453;28;45619;-72
2023/01/11 09:38:49;;;;;;;;;0.00;0.00;;;;;21.36;46.02;101442.81;5073950;28;45518;-73
2023/01/11 09:41:32;;;;;;;;;0.00;0.00;;;;;21.36;45.43;101434.88;5073293;28;47162;-73
2023/01/11 09:44:15;;;;;;;;;0.67;0.67;;;;;21.35;46.36;101457.03;5074570;28;45410;-73
2023/01/11 09:46:45;;;;;;;;;0.00;0.00;;;;;21.37;46.32;101458.53;5074669;28;45501;-73
2023/01/11 09:49:17;;;;;;;;;1.67;0.00;;;;;21.23;46.07;101438.81;5074223;28;45889;-73
2023/01/11 09:51:45;;;;;;;;;0.33;0.00;;;;;21.42;46.03;101467.84;5073962;28;46377;-73
2023/01/11 09:54:16;;;;;;;;;0.00;0.00;;;;;;;;5073349;28;45848;-73
2023/01/11 09:56:50;;;;;;;;;1.00;0.00;;;;;;;;5073746;28;45399;-73
2023/01/11 09:59:25;;;;;;;;;0.00;0.00;;;;;21.45;45.88;101483.38;5074173;28;45473;-73
2023/01/11 10:02:04;;;;;;;;;2.00;0.00;;;;;21.45;46.20;101500.09;5058306;28;46401;-73
2023/01/11 10:04:43;;;;;;;;;0.00;0.00;;;;;21.46;45.74;101500.94;5073993;28;45364;-73
2023/01/11 10:07:19;;;;;;;;;0.00;0.00;;;;;21.45;45.95;101501.91;5072981;28;45395;-72
2023/01/11 10:10:22;;;;;;;;;0.33;0.33;;;;;21.49;46.15;101511.19;5073512;28;45497;-73
2023/01/11 10:12:58;;;;;;;;;1.00;0.00;;;;;21.49;45.62;101513.84;5072607;28;46368;-73
2023/01/11 10:15:31;;;;;;;;;1.00;0.00;;;;;21.49;46.45;101513.84;5073515;28;45871;-73
2023/01/11 10:18:16;;;;;;;;;0.00;0.00;;;;;21.50;45.86;101518.13;5073468;28;45990;-73
2023/01/11 10:20:46;;;;;;;;;0.00;0.00;;;;;21.46;45.75;101517.66;5073818;28;45793;-73
2023/01/11 10:23:45;;;;;;;;;1.00;0.00;;;;;21.49;45.73;101521.78;5073335;28;46940;-73
2023/01/11 10:26:25;;;;;;;;;0.00;0.00;;;;;21.49;46.02;101530.53;5073961;28;45423;-73
2023/01/11 10:29:16;;;;;;;;;0.00;0.00;;;;;21.47;45.65;101542.28;5055643;28;45439;-73
2023/01/11 10:32:11;;;;;;;;;0.00;0.00;;;;;21.47;46.21;101531.69;5072842;28;45416;-73
2023/01/11 10:35:06;;;;;;;;;0.00;0.00;;;;;21.47;46.16;101539.63;5072812;28;47427;-73
2023/01/11 10:43:02;;;;;;;;;0.00;0.00;;;;;21.46;46.12;101532.69;5077772;27;45397;-72
2023/01/11 10:45:50;;;;;;;;;0.33;0.00;;;;;21.45;46.28;101531.84;5075765;27;47058;-71
2023/01/11 10:48:26;;;;;;;;;1.00;0.00;;;;;21.41;46.22;101527.88;5077211;28;45348;-72
2023/01/11 10:51:19;;;;;;;;;0.67;0.67;;;;;21.46;46.30;101536.19;5077007;28;45304;-72
2023/01/11 10:54:02;;;;;;;;;0.67;0.00;;;;;21.46;45.82;101541.47;5077947;28;45468;-71
2023/01/11 10:56:52;;;;;;;;;0.00;0.00;;;;;21.44;45.72;101543.47;5077239;28;47404;-71
2023/01/11 10:59:27;;;;;;;;;0.67;0.67;;;;;21.44;46.04;101532.88;5077596;28;45397;-72
2023/01/11 11:02:00;;;;;;;;;0.00;0.00;;;;;21.45;45.88;101538.97;5077462;27;45395;-72
2023/01/11 11:04:58;;;;;;;;;0.00;0.00;;;;;21.43;46.11;101541.78;5077147;28;45478;-72
2023/01/11 11:07:41;;;;;;;;;0.00;0.00;;;;;21.44;45.77;101542.63;5076738;27;45395;-72
2023/01/11 11:10:17;;;;;;;;;0.00;0.00;;;;;21.44;46.26;101547.91;5077394;28;45301;-72
2023/01/11 11:13:07;;;;;;;;;0.00;0.00;;;;;21.43;45.85;101541.78;5077671;27;45389;-72
2023/01/11 11:15:44;;;;;;;;;0.00;0.00;;;;;21.44;46.23;101542.63;5077499;28;45438;-72
2023/01/11 11:18:10;;;;;;;;;0.00;0.00;;;;;21.44;46.35;101545.28;5076931;27;46088;-72
2023/01/11 11:20:35;;;;;;;;;0.33;0.00;;;;;21.43;45.83;101547.09;5058949;28;45358;-72
2023/01/11 11:23:01;;;;;;;;;0.00;0.00;;;;;21.42;46.42;101529.53;5077328;27;45226;-72
2023/01/11 11:25:36;;;;;;;;;0.00;0.00;;;;;21.42;45.78;101540.13;5059099;28;45387;-72
2023/01/11 11:28:01;;;;;;;;;1.00;0.00;;;;;21.43;46.06;101531.19;5077022;28;46226;-72
2023/01/11 11:30:32;;;;;;;;;0.00;0.00;;;;;21.37;46.26;101518.59;5076972;28;45348;-72
2023/01/11 11:33:02;;;;;;;;;1.00;0.00;;;;;21.44;45.95;101526.75;5058701;28;45429;-72
2023/01/11 11:35:31;;;;;;;;;0.00;0.00;;;;;;;;5077013;28;45290;-71
2023/01/11 11:37:56;;;;;;;;;0.00;0.00;;;;;21.45;46.26;101520.44;5077082;28;45451;-71
2023/01/11 11:40:35;;;;;;;;;0.67;0.00;;;;;21.46;46.21;101527.41;5076820;28;45338;-71
2023/01/11 11:43:11;;;;;;;;;2.00;0.00;;;;;21.46;45.82;101533.53;5076647;28;45376;-72
2023/01/11 11:45:49;;;;;;;;;0.00;0.00;;;;;21.47;46.01;101539.63;5076367;27;45252;-72
2023/01/11 11:48:14;;;;;;;;;0.00;0.00;;;;;21.45;46.13;101549.56;5076790;28;45482;-70
2023/01/11 11:50:40;;;;;;;;;0.00;0.00;;;;;21.47;45.75;101547.56;5076703;27;45410;-72
2023/01/11 11:53:05;;;;;;;;;2.00;0.67;;;;;21.47;45.77;101553.72;5076964;28;45794;-72
2023/01/11 11:55:33;;;;;;;;;0.50;0.00;;;;;21.47;45.87;101553.72;5076656;28;45465;-75
2023/01/11 11:58:04;;;;;;;;;0.00;0.00;;;;;21.46;45.35;101548.59;5076615;28;45256;-74
2023/01/11 12:00:39;;;;;;;;;0.00;0.00;;;;;21.48;45.98;101551.88;5076136;28;45363;-73
2023/01/11 12:03:30;;;;;;;;;1.33;0.00;;;;;21.46;45.87;101546.78;5076543;28;45422;-71
2023/01/11 12:06:02;;;;;;;;;0.00;0.00;;;;;21.48;46.01;101544.78;5076802;28;45352;-70